Time;durP1;ratioP1;P1;durP2;ratioP2;P2;SDS_P1;SDS_P2;PMS_P1;PMS_P2;Temp;Humidity;BMP_temperature;BMP_pressure;BME280_temperature;BME280_humidity;BME280_pressure;Samples;Min_cycle;Max_cycle;Signal;HPM_P1;HPM_P2
2021/01/07 00:02:00;;;;;;;23.13;15.27;;;1.80;92.20;;;;;;5042323;28;20775;-85
2021/01/07 00:04:26;;;;;;;21.70;15.00;;;1.80;92.80;;;;;;5045480;28;20484;-82
2021/01/07 00:06:53;;;;;;;20.97;15.77;;;1.80;92.60;;;;;;5046030;28;20459;-84
2021/01/07 00:09:24;;;;;;;17.00;13.53;;;1.90;92.70;;;;;;5037673;28;20469;-82
2021/01/07 00:11:53;;;;;;;18.83;14.37;;;1.80;91.80;;;;;;5042934;28;20538;-82
2021/01/07 00:14:20;;;;;;;18.70;14.27;;;1.80;92.50;;;;;;5040933;28;20525;-84
2021/01/07 00:16:46;;;;;;;17.43;13.50;;;1.90;92.50;;;;;;5035172;28;20450;-84
2021/01/07 00:19:13;;;;;;;20.43;13.47;;;1.90;92.50;;;;;;5037083;28;20460;-83
2021/01/07 00:21:41;;;;;;;17.13;13.80;;;2.00;92.40;;;;;;5041409;28;20444;-82
2021/01/07 00:24:08;;;;;;;20.63;15.10;;;2.00;91.80;;;;;;5045113;28;21204;-85
2021/01/07 00:26:36;;;;;;;20.30;14.67;;;1.90;92.20;;;;;;5036268;28;20474;-83
2021/01/07 00:29:04;;;;;;;18.23;14.43;;;2.00;91.30;;;;;;5054783;28;20472;-84
2021/01/07 00:31:30;;;;;;;18.90;14.23;;;2.10;92.00;;;;;;5050508;28;20481;-85
2021/01/07 00:34:00;;;;;;;18.10;14.07;;;1.90;91.90;;;;;;5043053;28;20449;-83
2021/01/07 00:36:28;;;;;;;18.87;13.73;;;1.90;91.70;;;;;;5044589;28;20458;-83
2021/01/07 00:38:56;;;;;;;18.20;14.30;;;1.90;92.30;;;;;;5045457;28;20535;-83
2021/01/07 00:41:22;;;;;;;22.33;15.50;;;1.90;92.20;;;;;;5022592;28;20481;-83
2021/01/07 00:43:50;;;;;;;19.60;14.50;;;1.90;92.20;;;;;;5039558;28;20501;-83
2021/01/07 00:46:19;;;;;;;19.37;14.73;;;1.90;91.70;;;;;;5036826;28;20448;-83
2021/01/07 00:48:47;;;;;;;23.33;15.83;;;1.90;92.30;;;;;;5038718;28;20482;-83
2021/01/07 00:51:14;;;;;;;19.13;14.77;;;1.90;92.50;;;;;;5035219;28;20448;-84
2021/01/07 00:53:41;;;;;;;18.90;14.43;;;1.90;92.70;;;;;;5039107;28;20457;-83
2021/01/07 00:56:08;;;;;;;20.57;14.47;;;1.90;92.60;;;;;;5036320;28;20459;-84
2021/01/07 00:58:34;;;;;;;19.97;14.73;;;1.90;92.40;;;;;;5036816;28;20457;-84
2021/01/07 01:01:07;;;;;;;21.50;15.47;;;1.90;92.80;;;;;;5035981;28;20473;-83
2021/01/07 01:03:34;;;;;;;20.60;14.97;;;1.90;92.20;;;;;;5036536;28;20461;-83
2021/01/07 01:06:00;;;;;;;19.80;14.23;;;1.90;92.70;;;;;;5037857;28;20483;-83
2021/01/07 01:08:27;;;;;;;21.10;14.87;;;1.90;92.60;;;;;;5036048;28;20503;-84
2021/01/07 01:10:55;;;;;;;20.50;14.53;;;1.80;92.60;;;;;;5036861;28;20460;-84
2021/01/07 01:13:21;;;;;;;21.20;15.53;;;1.90;92.90;;;;;;5028366;28;20481;-84
2021/01/07 01:15:49;;;;;;;19.40;14.37;;;1.90;93.30;;;;;;5045886;28;20454;-83
2021/01/07 01:18:17;;;;;;;24.70;16.27;;;1.90;93.20;;;;;;5036652;28;20447;-83
2021/01/07 01:20:44;;;;;;;20.87;14.17;;;1.80;93.90;;;;;;5036031;28;20452;-84
2021/01/07 01:23:12;;;;;;;19.20;14.67;;;1.80;94.00;;;;;;5041084;28;20447;-83
2021/01/07 01:25:38;;;;;;;22.57;15.73;;;1.90;94.20;;;;;;5038111;28;20530;-83
2021/01/07 01:28:05;;;;;;;22.93;14.50;;;1.90;94.70;;;;;;5038518;28;20533;-83
2021/01/07 01:30:32;;;;;;;19.87;14.57;;;1.80;94.90;;;;;;5037132;28;20593;-82
2021/01/07 01:32:58;;;;;;;21.53;14.73;;;1.80;96.20;;;;;;5022376;28;20449;-82
2021/01/07 01:35:29;;;;;;;19.40;13.47;;;1.80;95.80;;;;;;5035297;28;20485;-82
2021/01/07 01:37:56;;;;;;;22.40;14.10;;;1.80;95.20;;;;;;5020636;28;20508;-83
2021/01/07 01:40:24;;;;;;;21.63;14.53;;;1.80;95.50;;;;;;5035451;28;20518;-82
2021/01/07 01:42:52;;;;;;;19.93;13.53;;;1.70;96.10;;;;;;5036435;28;20455;-82
2021/01/07 01:45:19;;;;;;;21.93;13.97;;;1.70;96.90;;;;;;5037562;28;20474;-83
2021/01/07 01:47:46;;;;;;;21.10;14.07;;;1.70;98.40;;;;;;5019761;28;20503;-83
2021/01/07 01:50:13;;;;;;;21.23;13.57;;;1.70;98.80;;;;;;5037296;28;20458;-82
2021/01/07 01:52:41;;;;;;;21.80;14.07;;;1.70;98.50;;;;;;5022018;28;20456;-82
2021/01/07 01:55:09;;;;;;;22.87;13.90;;;1.70;99.60;;;;;;5039410;28;20947;-83
2021/01/07 01:57:37;;;;;;;23.90;15.40;;;1.60;99.90;;;;;;5035481;28;20939;-84
2021/01/07 02:00:05;;;;;;;20.93;14.87;;;1.70;99.90;;;;;;5024224;28;20870;-84
2021/01/07 02:02:32;;;;;;;22.57;14.47;;;1.60;99.90;;;;;;5038027;28;20789;-83
2021/01/07 02:05:00;;;;;;;22.20;14.37;;;1.60;99.90;;;;;;5034122;28;20451;-83
2021/01/07 02:07:29;;;;;;;22.80;15.30;;;1.60;99.90;;;;;;5020152;28;20557;-84
2021/01/07 02:09:57;;;;;;;21.80;14.60;;;1.50;99.90;;;;;;5041998;28;20935;-83
2021/01/07 02:12:25;;;;;;;20.83;15.17;;;1.40;99.90;;;;;;5032748;28;20472;-82
2021/01/07 02:14:52;;;;;;;20.50;14.10;;;1.40;97.50;;;;;;5035395;28;20455;-81
2021/01/07 02:17:18;;;;;;;21.13;14.50;;;1.40;95.40;;;;;;5039971;28;20767;-83
2021/01/07 02:19:45;;;;;;;21.77;14.50;;;1.30;96.00;;;;;;5040471;28;20451;-83
2021/01/07 02:22:14;;;;;;;21.33;14.57;;;1.40;97.60;;;;;;5041042;28;20476;-84
2021/01/07 02:24:41;;;;;;;17.93;12.80;;;1.30;95.90;;;;;;5044142;28;20467;-82
2021/01/07 02:27:08;;;;;;;20.60;14.10;;;1.40;96.10;;;;;;5043442;28;20474;-82
2021/01/07 02:29:36;;;;;;;23.20;14.90;;;1.20;95.40;;;;;;5038935;28;20547;-83
2021/01/07 02:32:04;;;;;;;20.97;15.10;;;1.20;96.30;;;;;;5043666;28;20474;-83
2021/01/07 02:34:31;;;;;;;18.13;13.73;;;1.20;97.50;;;;;;5037048;28;20472;-82
2021/01/07 02:36:59;;;;;;;24.70;14.73;;;1.20;97.30;;;;;;5040316;28;20455;-83
2021/01/07 02:39:27;;;;;;;23.03;15.80;;;1.20;99.30;;;;;;5039102;28;20460;-83
2021/01/07 02:41:55;;;;;;;23.93;16.10;;;1.10;98.00;;;;;;5039894;28;20491;-82
2021/01/07 02:44:22;;;;;;;23.77;15.20;;;1.30;98.60;;;;;;5021038;28;20450;-83
2021/01/07 02:46:49;;;;;;;20.40;14.40;;;1.20;97.20;;;;;;5008720;28;20461;-83
2021/01/07 02:49:16;;;;;;;21.20;14.60;;;1.30;97.20;;;;;;5024966;28;20474;-84
2021/01/07 02:51:44;;;;;;;22.37;15.70;;;1.10;96.70;;;;;;5033162;28;20459;-83
2021/01/07 02:54:11;;;;;;;21.77;14.87;;;1.10;96.40;;;;;;5021255;28;20478;-83
2021/01/07 02:56:40;;;;;;;23.23;16.10;;;1.10;96.70;;;;;;5039709;28;20455;-83
2021/01/07 02:59:08;;;;;;;22.73;15.40;;;1.10;96.40;;;;;;5038306;28;20472;-83
2021/01/07 03:01:35;;;;;;;23.50;15.50;;;1.10;95.70;;;;;;5040304;28;20538;-83
2021/01/07 03:04:02;;;;;;;21.73;14.67;;;1.10;95.60;;;;;;5022467;28;20955;-83
2021/01/07 03:06:32;;;;;;;21.87;14.90;;;1.10;95.40;;;;;;5041841;28;20964;-83
2021/01/07 03:09:01;;;;;;;19.10;13.57;;;1.10;95.40;;;;;;5039697;28;20550;-84
2021/01/07 03:11:28;;;;;;;19.20;14.30;;;1.10;94.60;;;;;;5018959;28;20451;-83
2021/01/07 03:13:58;;;;;;;24.00;13.97;;;1.10;94.60;;;;;;5037872;28;20466;-84
2021/01/07 03:16:24;;;;;;;18.90;13.10;;;1.10;93.60;;;;;;5036437;28;20462;-84
2021/01/07 03:18:51;;;;;;;19.17;14.20;;;1.10;93.00;;;;;;5040741;28;20454;-83
2021/01/07 03:21:17;;;;;;;22.83;13.60;;;1.10;93.70;;;;;;5017392;28;20839;-83
2021/01/07 03:23:46;;;;;;;22.00;14.73;;;1.10;93.50;;;;;;5041267;28;20439;-84
2021/01/07 03:26:13;;;;;;;23.60;14.80;;;1.10;93.30;;;;;;5051042;28;20450;-84
2021/01/07 03:28:41;;;;;;;20.90;14.23;;;1.10;94.10;;;;;;5053202;28;20471;-84
2021/01/07 03:31:09;;;;;;;22.70;15.27;;;1.20;94.80;;;;;;5057104;28;20442;-83
2021/01/07 03:33:36;;;;;;;21.33;14.30;;;1.10;93.90;;;;;;5041568;28;20468;-83
2021/01/07 03:36:03;;;;;;;18.37;14.00;;;1.10;93.90;;;;;;5039889;28;20463;-83
2021/01/07 03:38:30;;;;;;;18.80;14.30;;;1.20;93.90;;;;;;5037145;28;20456;-83
2021/01/07 03:40:59;;;;;;;22.30;13.90;;;1.10;94.60;;;;;;5037630;28;20678;-84
2021/01/07 03:43:25;;;;;;;22.50;15.27;;;1.10;94.60;;;;;;5053042;28;20454;-84
2021/01/07 03:45:52;;;;;;;22.50;15.17;;;1.10;94.10;;;;;;5057451;28;20454;-84
2021/01/07 03:48:19;;;;;;;22.43;15.13;;;1.10;94.00;;;;;;5050965;28;20511;-83
2021/01/07 03:50:46;;;;;;;24.73;16.17;;;1.30;94.20;;;;;;5052580;28;20541;-83
2021/01/07 03:53:12;;;;;;;25.73;17.10;;;1.20;93.30;;;;;;5055112;28;20438;-84
2021/01/07 03:55:39;;;;;;;21.07;15.47;;;1.20;93.80;;;;;;5054785;28;20461;-83
2021/01/07 03:58:08;;;;;;;25.03;16.97;;;1.10;93.40;;;;;;5044075;28;20466;-83
2021/01/07 04:00:35;;;;;;;21.30;15.30;;;1.20;93.20;;;;;;5040883;28;20457;-83
2021/01/07 04:03:03;;;;;;;22.77;15.43;;;1.20;93.80;;;;;;5040059;28;20484;-84
2021/01/07 04:05:33;;;;;;;26.00;17.40;;;1.20;93.70;;;;;;5040527;28;20439;-84
2021/01/07 04:07:59;;;;;;;25.53;16.97;;;1.20;93.90;;;;;;5037860;28;20476;-85
2021/01/07 04:10:26;;;;;;;23.87;16.17;;;1.20;94.30;;;;;;5039286;28;20454;-84
2021/01/07 04:12:54;;;;;;;24.37;17.90;;;1.30;92.90;;;;;;5040163;28;20478;-83
2021/01/07 04:15:22;;;;;;;25.40;16.60;;;1.20;92.40;;;;;;5038722;28;20809;-82
2021/01/07 04:17:49;;;;;;;24.00;17.03;;;1.20;92.20;;;;;;5032062;28;20444;-83
2021/01/07 04:20:16;;;;;;;26.33;15.97;;;1.10;91.60;;;;;;5040825;28;20479;-82
2021/01/07 04:22:44;;;;;;;25.37;16.50;;;1.10;92.00;;;;;;5040778;28;20450;-83
2021/01/07 04:25:12;;;;;;;26.13;16.80;;;1.10;92.30;;;;;;5044173;28;20497;-83
2021/01/07 04:27:39;;;;;;;24.77;16.47;;;1.20;92.40;;;;;;5023877;28;20472;-83
2021/01/07 04:30:08;;;;;;;25.27;17.37;;;1.30;92.20;;;;;;5044982;28;20454;-84
2021/01/07 04:32:35;;;;;;;25.77;17.20;;;1.20;92.60;;;;;;5023037;28;20754;-84
2021/01/07 04:35:01;;;;;;;27.67;16.60;;;1.30;92.30;;;;;;5040823;28;20470;-84
2021/01/07 04:37:28;;;;;;;25.60;17.20;;;1.20;91.60;;;;;;5045038;28;20436;-84
2021/01/07 04:39:57;;;;;;;23.60;16.33;;;1.20;91.40;;;;;;5051576;28;20465;-84
2021/01/07 04:42:25;;;;;;;27.87;17.60;;;1.20;91.20;;;;;;5042581;28;20460;-83
2021/01/07 04:44:52;;;;;;;27.93;17.77;;;1.20;91.60;;;;;;5038278;28;20458;-83
2021/01/07 04:47:19;;;;;;;26.37;17.40;;;1.20;91.20;;;;;;5030537;28;20860;-83
2021/01/07 04:49:46;;;;;;;28.90;17.23;;;1.20;91.20;;;;;;5035535;28;20447;-83
2021/01/07 04:52:13;;;;;;;25.37;16.50;;;1.20;91.20;;;;;;5034893;28;20444;-83
2021/01/07 04:54:39;;;;;;;22.80;16.83;;;1.20;91.50;;;;;;5034689;28;20460;-83
2021/01/07 04:57:07;;;;;;;27.30;16.67;;;1.30;91.20;;;;;;5029606;28;20439;-84
2021/01/07 04:59:34;;;;;;;27.60;18.07;;;1.30;90.20;;;;;;5035580;28;20430;-84
2021/01/07 05:02:02;;;;;;;27.33;18.10;;;1.20;90.70;;;;;;5044848;28;20486;-83
2021/01/07 05:04:29;;;;;;;28.67;17.33;;;1.20;90.50;;;;;;5032939;28;20530;-83
2021/01/07 05:06:55;;;;;;;30.90;19.47;;;1.20;90.20;;;;;;5016751;28;20443;-83
2021/01/07 05:09:22;;;;;;;28.23;18.10;;;1.20;91.30;;;;;;5032813;28;21340;-83
2021/01/07 05:11:49;;;;;;;24.33;16.50;;;1.30;91.00;;;;;;5033639;28;20508;-84
2021/01/07 05:14:16;;;;;;;24.70;17.30;;;1.40;90.60;;;;;;5034465;28;20463;-83
2021/01/07 05:16:43;;;;;;;25.40;16.83;;;1.20;89.40;;;;;;5032155;28;20471;-83
2021/01/07 05:19:10;;;;;;;23.37;15.60;;;1.20;88.60;;;;;;5030917;28;20463;-83
2021/01/07 05:21:36;;;;;;;29.83;16.63;;;1.30;89.70;;;;;;5038106;28;20450;-83
2021/01/07 05:24:04;;;;;;;24.23;17.10;;;1.30;89.10;;;;;;5036481;28;20459;-83
2021/01/07 05:26:31;;;;;;;25.97;17.67;;;1.30;87.20;;;;;;5030118;28;20451;-83
2021/01/07 05:29:01;;;;;;;28.20;18.00;;;1.30;87.80;;;;;;5034672;28;20480;-83
2021/01/07 05:31:29;;;;;;;26.60;16.50;;;1.30;88.40;;;;;;5033639;28;20491;-80
2021/01/07 05:33:56;;;;;;;25.70;17.10;;;1.30;88.00;;;;;;5031387;28;20839;-80
2021/01/07 05:36:24;;;;;;;27.13;18.13;;;1.20;87.80;;;;;;5028396;28;20457;-81
2021/01/07 05:38:51;;;;;;;23.90;16.90;;;1.20;88.30;;;;;;5033637;28;20452;-80
2021/01/07 05:41:19;;;;;;;27.30;18.77;;;1.20;88.70;;;;;;5034420;28;20549;-82
2021/01/07 05:43:57;;;;;;;25.67;16.60;;;1.30;88.00;;;;;;5034530;28;20463;-82
2021/01/07 05:46:25;;;;;;;27.53;18.10;;;1.20;87.00;;;;;;5016545;28;20492;-81
2021/01/07 05:48:54;;;;;;;26.50;18.30;;;1.30;87.90;;;;;;5044975;28;20521;-82
2021/01/07 05:51:24;;;;;;;27.97;18.47;;;1.20;87.70;;;;;;5046776;28;20451;-80
2021/01/07 05:53:51;;;;;;;28.53;17.83;;;1.20;88.20;;;;;;5044057;28;20461;-81
2021/01/07 05:56:21;;;;;;;27.57;18.70;;;1.20;88.60;;;;;;5038521;28;20462;-80
2021/01/07 05:58:49;;;;;;;26.83;17.60;;;1.20;88.70;;;;;;5041695;28;20470;-81
2021/01/07 06:01:16;;;;;;;25.93;17.47;;;1.20;87.40;;;;;;5039265;28;20836;-80
2021/01/07 06:03:48;;;;;;;26.93;17.77;;;1.20;86.60;;;;;;5042040;28;20450;-80
2021/01/07 06:06:17;;;;;;;28.60;19.40;;;1.20;87.00;;;;;;5038765;28;20482;-80
2021/01/07 06:08:48;;;;;;;27.73;17.67;;;1.20;88.30;;;;;;5040401;28;20493;-81
2021/01/07 06:11:15;;;;;;;29.10;17.37;;;1.20;87.80;;;;;;5041416;28;20591;-81
2021/01/07 06:13:43;;;;;;;28.73;18.97;;;1.20;86.70;;;;;;5041004;28;20553;-79
2021/01/07 06:16:14;;;;;;;28.13;18.73;;;1.20;87.90;;;;;;5037921;28;20494;-82
2021/01/07 06:18:40;;;;;;;25.60;18.40;;;1.30;86.90;;;;;;5047533;28;20507;-79
2021/01/07 06:21:08;;;;;;;29.73;18.00;;;1.20;87.00;;;;;;5038165;28;20442;-80
2021/01/07 06:23:41;;;;;;;31.63;20.37;;;1.20;85.90;;;;;;5041223;28;20454;-83
2021/01/07 06:26:21;;;;;;;26.90;17.90;;;1.30;86.70;;;;;;5038472;28;20442;-81
2021/01/07 06:28:50;;;;;;;27.07;18.30;;;1.30;86.80;;;;;;5043951;28;20497;-80
2021/01/07 06:31:17;;;;;;;29.33;19.60;;;1.30;86.60;;;;;;5040237;28;20450;-81
2021/01/07 06:33:44;;;;;;;28.93;18.23;;;1.30;86.60;;;;;;5043532;28;20572;-82
2021/01/07 06:36:12;;;;;;;25.50;17.60;;;1.30;86.80;;;;;;5050963;28;20459;-83
2021/01/07 06:38:50;;;;;;;25.13;16.93;;;1.30;86.80;;;;;;5040189;28;20442;-81
2021/01/07 06:41:19;;;;;;;25.50;18.33;;;1.30;86.90;;;;;;5043430;28;20450;-80
2021/01/07 06:43:48;;;;;;;28.50;19.00;;;1.30;87.40;;;;;;5038845;28;20459;-82
2021/01/07 06:46:39;;;;;;;28.07;18.40;;;1.30;87.90;;;;;;5046257;28;20505;-79
2021/01/07 06:49:20;;;;;;;29.83;18.10;;;1.30;87.90;;;;;;5025870;28;20476;-82
2021/01/07 06:51:54;;;;;;;31.10;18.50;;;1.30;88.10;;;;;;5042310;28;20455;-80
2021/01/07 06:54:25;;;;;;;29.07;18.40;;;1.30;87.70;;;;;;5043400;28;20450;-81
2021/01/07 06:56:54;;;;;;;26.70;18.20;;;1.30;87.70;;;;;;5044012;28;20435;-81
2021/01/07 06:59:21;;;;;;;30.60;19.90;;;1.30;87.70;;;;;;5038389;28;21154;-81
2021/01/07 07:01:51;;;;;;;29.40;19.40;;;1.30;87.10;;;;;;5037434;28;20451;-79
2021/01/07 07:04:25;;;;;;;31.60;20.37;;;1.30;87.10;;;;;;5038468;28;20454;-79
2021/01/07 07:06:58;;;;;;;32.67;20.10;;;1.30;86.50;;;;;;5034437;28;20470;-81
2021/01/07 07:09:26;;;;;;;33.10;20.00;;;1.30;86.10;;;;;;5031054;28;20561;-81
2021/01/07 07:11:54;;;;;;;31.37;20.00;;;1.30;86.40;;;;;;5032966;28;20446;-79
2021/01/07 07:14:22;;;;;;;31.80;20.97;;;1.30;86.50;;;;;;5026868;28;20461;-81
2021/01/07 07:16:49;;;;;;;36.57;20.67;;;1.30;86.30;;;;;;5032360;28;20459;-85
2021/01/07 07:19:26;;;;;;;32.20;21.37;;;1.30;85.80;;;;;;5037135;28;20503;-81
2021/01/07 07:22:00;;;;;;;37.70;22.00;;;1.30;85.50;;;;;;5047203;28;20486;-80
2021/01/07 07:24:37;;;;;;;33.43;21.50;;;1.30;85.50;;;;;;5039140;28;20853;-80
2021/01/07 07:27:10;;;;;;;33.57;21.20;;;1.30;86.20;;;;;;5038567;28;20452;-82
2021/01/07 07:29:39;;;;;;;34.70;20.80;;;1.30;85.50;;;;;;5037044;28;20480;-81
2021/01/07 07:32:22;;;;;;;31.10;20.47;;;1.40;86.30;;;;;;5038313;28;20447;-81
2021/01/07 07:34:53;;;;;;;32.47;21.30;;;1.40;85.30;;;;;;5036003;28;20459;-84
2021/01/07 07:37:21;;;;;;;31.70;21.03;;;1.40;84.80;;;;;;5040020;28;20524;-82
2021/01/07 07:39:50;;;;;;;31.50;20.90;;;1.40;84.80;;;;;;5045342;28;20543;-83
2021/01/07 07:42:17;;;;;;;31.43;20.37;;;1.40;84.60;;;;;;5046758;28;20448;-82
2021/01/07 07:44:47;;;;;;;33.00;21.73;;;1.40;84.30;;;;;;5033235;28;20467;-80
2021/01/07 07:47:14;;;;;;;35.47;21.13;;;1.40;84.30;;;;;;5034952;28;20565;-80
2021/01/07 07:49:43;;;;;;;34.33;22.57;;;1.40;83.90;;;;;;5045197;28;20501;-87
2021/01/07 07:52:10;;;;;;;32.47;19.40;;;1.40;84.10;;;;;;5053741;28;20527;-84
2021/01/07 07:54:37;;;;;;;36.00;21.23;;;1.40;84.10;;;;;;5056920;28;20450;-83
2021/01/07 07:57:05;;;;;;;32.30;20.83;;;1.40;84.30;;;;;;5043115;28;20485;-81
2021/01/07 07:59:32;;;;;;;34.40;23.07;;;1.50;84.40;;;;;;5029524;28;20466;-80
2021/01/07 08:02:03;;;;;;;36.47;21.40;;;1.50;84.30;;;;;;5035282;28;20458;-81
2021/01/07 08:04:30;;;;;;;34.27;22.03;;;1.50;84.20;;;;;;5037779;28;20604;-80
2021/01/07 08:06:57;;;;;;;33.30;22.47;;;1.50;83.90;;;;;;5036183;28;20613;-80
2021/01/07 08:09:26;;;;;;;39.73;23.03;;;1.50;83.80;;;;;;5039090;28;20485;-82
2021/01/07 08:11:53;;;;;;;36.63;22.93;;;1.50;83.50;;;;;;5049209;28;20448;-83
2021/01/07 08:14:26;;;;;;;33.10;21.00;;;1.50;83.30;;;;;;5049323;28;20454;-81
2021/01/07 08:16:56;;;;;;;32.23;22.13;;;1.50;83.50;;;;;;5042489;28;20451;-80
2021/01/07 08:19:25;;;;;;;31.63;20.57;;;1.60;83.10;;;;;;5039716;28;20435;-81
2021/01/07 08:21:53;;;;;;;33.83;22.03;;;1.50;82.70;;;;;;5038174;28;20997;-81
2021/01/07 08:24:22;;;;;;;34.67;21.83;;;1.60;83.40;;;;;;5040137;28;20949;-79
2021/01/07 08:27:08;;;;;;;34.57;22.80;;;1.60;82.80;;;;;;5039741;28;20462;-80
2021/01/07 08:29:39;;;;;;;35.00;22.20;;;1.70;84.20;;;;;;5042043;28;20488;-80
2021/01/07 08:32:09;;;;;;;32.90;22.53;;;1.80;84.30;;;;;;5042270;28;20479;-81
2021/01/07 08:34:36;;;;;;;34.10;22.17;;;1.80;82.50;;;;;;5043309;28;20451;-83
2021/01/07 08:37:14;;;;;;;32.07;21.20;;;1.90;82.10;;;;;;5032795;28;20444;-80
2021/01/07 08:39:42;;;;;;;32.50;21.90;;;1.80;81.90;;;;;;5045605;28;20475;-82
2021/01/07 08:42:10;;;;;;;34.47;22.20;;;1.80;81.10;;;;;;5047933;28;20452;-85
2021/01/07 08:44:38;;;;;;;34.60;23.23;;;1.80;81.60;;;;;;5039655;28;20442;-83
2021/01/07 08:47:19;;;;;;;33.37;21.00;;;1.80;81.70;;;;;;5049288;28;20446;-78
2021/01/07 08:49:46;;;;;;;34.93;21.83;;;1.90;81.40;;;;;;5056640;28;20517;-81
2021/01/07 08:52:13;;;;;;;34.80;23.00;;;1.90;81.20;;;;;;5047672;28;20943;-79
2021/01/07 08:54:39;;;;;;;33.37;21.97;;;1.90;80.80;;;;;;5040642;28;20533;-78
2021/01/07 08:57:12;;;;;;;37.30;23.23;;;1.90;81.30;;;;;;5040144;28;20569;-79
2021/01/07 08:59:41;;;;;;;34.40;23.37;;;1.90;80.70;;;;;;5042279;28;20461;-85
2021/01/07 09:02:20;;;;;;;32.70;22.20;;;2.00;81.20;;;;;;5036485;28;20450;-83
2021/01/07 09:04:50;;;;;;;36.27;23.00;;;2.00;80.70;;;;;;5040762;28;20539;-84
2021/01/07 09:07:21;;;;;;;29.90;20.70;;;2.00;80.50;;;;;;5045610;28;20454;-84
2021/01/07 09:09:54;;;;;;;32.07;21.30;;;2.00;80.10;;;;;;5046473;28;20482;-85
2021/01/07 09:12:24;;;;;;;33.50;22.20;;;2.00;80.40;;;;;;5026426;28;20483;-82
2021/01/07 09:18:35;;;;;;;31.30;20.50;;;2.10;80.00;;;;;;5036755;28;20455;-88
2021/01/07 09:21:28;;;;;;;33.10;21.43;;;2.10;80.00;;;;;;5027841;28;20481;-92
2021/01/07 09:29:53;;;;;;;28.20;19.87;;;2.20;78.60;;;;;;5036167;28;20486;-88
2021/01/07 09:32:24;;;;;;;30.50;19.73;;;2.20;78.60;;;;;;5033927;28;20457;-89
2021/01/07 09:34:53;;;;;;;33.30;21.33;;;2.30;79.10;;;;;;5033819;28;20491;-77
2021/01/07 09:37:21;;;;;;;31.57;20.57;;;2.40;79.00;;;;;;5025320;28;20483;-68
2021/01/07 09:39:49;;;;;;;31.07;20.70;;;2.30;78.90;;;;;;5020481;28;20454;-68
2021/01/07 09:42:17;;;;;;;28.57;20.13;;;2.30;79.30;;;;;;5022112;28;20463;-67
2021/01/07 09:44:46;;;;;;;30.50;20.40;;;2.30;78.90;;;;;;5020648;28;20827;-69
2021/01/07 09:47:12;;;;;;;26.07;18.90;;;2.40;78.90;;;;;;5025995;28;21020;-69
2021/01/07 09:49:43;;;;;;;31.00;19.47;;;2.30;78.80;;;;;;5024366;28;20475;-68
2021/01/07 09:52:09;;;;;;;29.00;19.63;;;2.20;78.80;;;;;;5026236;28;20451;-69
2021/01/07 09:54:38;;;;;;;30.73;20.60;;;2.30;79.00;;;;;;5022878;28;20444;-68
2021/01/07 09:57:06;;;;;;;29.50;20.43;;;2.30;79.10;;;;;;5026918;28;21322;-68
2021/01/07 09:59:32;;;;;;;28.03;19.30;;;2.30;79.20;;;;;;5024545;28;20578;-69
2021/01/07 10:02:01;;;;;;;28.23;20.43;;;2.30;78.60;;;;;;5025996;28;20815;-72
2021/01/07 10:04:29;;;;;;;30.27;20.83;;;2.30;79.30;;;;;;5019479;28;20485;-73
2021/01/07 10:06:57;;;;;;;29.60;19.50;;;2.30;79.50;;;;;;5026240;28;20527;-68
2021/01/07 10:09:24;;;;;;;26.43;19.40;;;2.30;79.20;;;;;;5032542;28;21037;-81
2021/01/07 10:11:54;;;;;;;26.63;19.90;;;2.20;80.00;;;;;;5029587;28;20471;-82
2021/01/07 10:14:21;;;;;;;29.10;19.63;;;2.30;80.10;;;;;;5036225;28;20477;-79
2021/01/07 10:16:49;;;;;;;29.17;19.23;;;2.40;79.80;;;;;;5036531;28;20508;-82
2021/01/07 10:19:17;;;;;;;26.77;19.27;;;2.20;78.80;;;;;;5035024;28;20449;-80
2021/01/07 10:21:47;;;;;;;27.00;18.27;;;2.10;79.20;;;;;;5040446;28;20474;-81
2021/01/07 10:24:16;;;;;;;29.33;19.57;;;2.20;79.60;;;;;;5039609;28;20445;-81
2021/01/07 10:26:43;;;;;;;27.07;18.50;;;2.10;80.00;;;;;;5038404;28;20458;-81
2021/01/07 10:29:12;;;;;;;26.07;19.50;;;2.10;79.90;;;;;;5033568;28;20970;-81
2021/01/07 10:31:39;;;;;;;34.00;18.90;;;2.10;80.90;;;;;;5034528;28;20831;-81
2021/01/07 10:34:08;;;;;;;37.93;21.87;;;2.00;80.60;;;;;;5046983;28;20458;-81
2021/01/07 10:36:38;;;;;;;26.43;19.10;;;1.90;81.70;;;;;;5048610;28;20440;-81
2021/01/07 10:39:08;;;;;;;27.67;18.60;;;2.00;82.70;;;;;;5047375;28;20504;-83
2021/01/07 10:41:44;;;;;;;28.50;20.57;;;2.00;83.30;;;;;;5050011;28;20427;-81
2021/01/07 10:44:12;;;;;;;26.83;19.20;;;2.00;82.90;;;;;;5052497;28;20458;-80
2021/01/07 10:46:45;;;;;;;30.67;19.63;;;2.00;82.70;;;;;;5046812;28;20451;-80
2021/01/07 10:49:13;;;;;;;27.40;19.60;;;1.90;83.10;;;;;;5045183;28;20577;-81
2021/01/07 10:51:56;;;;;;;25.13;19.30;;;1.90;83.60;;;;;;5042053;28;20487;-81
2021/01/07 10:54:40;;;;;;;26.90;19.47;;;1.90;83.90;;;;;;5037253;28;23004;-81
2021/01/07 10:57:37;;;;;;;31.97;20.23;;;1.90;84.70;;;;;;5039970;28;20483;-81
2021/01/07 11:00:08;;;;;;;29.60;19.30;;;1.90;85.40;;;;;;5040743;28;20457;-81
2021/01/07 11:03:19;;;;;;;32.27;20.93;;;1.90;85.10;;;;;;5042763;28;20498;-82
2021/01/07 11:05:53;;;;;;;30.30;20.50;;;2.00;86.00;;;;;;4976613;28;20490;-81
2021/01/07 11:08:26;;;;;;;31.00;20.40;;;2.10;86.20;;;;;;4979725;28;20496;-81
2021/01/07 11:10:54;;;;;;;28.63;21.03;;;2.10;85.30;;;;;;5017547;28;20501;-80
2021/01/07 11:13:24;;;;;;;28.90;20.10;;;2.20;86.30;;;;;;5050853;28;20535;-82
2021/01/07 11:15:56;;;;;;;32.73;20.43;;;2.30;85.00;;;;;;5052077;28;20481;-80
2021/01/07 11:18:27;;;;;;;27.13;18.70;;;2.40;85.20;;;;;;5051571;28;20486;-83
2021/01/07 11:20:59;;;;;;;30.23;20.50;;;2.30;83.50;;;;;;5046154;28;20491;-83
2021/01/07 11:23:26;;;;;;;33.03;22.70;;;2.30;83.70;;;;;;5029482;28;20447;-82
2021/01/07 11:25:54;;;;;;;29.20;20.10;;;2.40;83.60;;;;;;5045355;28;20485;-82
2021/01/07 11:28:20;;;;;;;29.00;21.13;;;2.60;82.60;;;;;;5045172;28;20478;-83
2021/01/07 11:30:48;;;;;;;25.77;20.00;;;2.60;80.90;;;;;;5024761;28;20456;-82
2021/01/07 11:33:16;;;;;;;27.20;19.07;;;2.60;80.20;;;;;;5043047;28;20451;-82
2021/01/07 11:35:47;;;;;;;28.73;19.87;;;2.60;80.50;;;;;;5040358;28;20539;-82
2021/01/07 11:38:24;;;;;;;28.60;19.10;;;2.80;80.50;;;;;;5043020;28;20452;-81
2021/01/07 11:41:09;;;;;;;29.90;21.30;;;3.00;79.40;;;;;;5041031;28;20446;-82
2021/01/07 11:44:24;;;;;;;27.50;19.60;;;2.80;80.20;;;;;;5033822;28;20636;-82
2021/01/07 11:46:53;;;;;;;26.50;18.27;;;2.90;79.40;;;;;;5052095;28;20467;-83
2021/01/07 11:49:24;;;;;;;24.23;17.60;;;2.70;79.30;;;;;;5047354;28;20463;-81
2021/01/07 11:51:52;;;;;;;24.37;18.23;;;2.50;80.10;;;;;;5043240;28;20472;-81
2021/01/07 11:54:22;;;;;;;25.90;19.87;;;2.50;80.10;;;;;;5043175;28;20451;-81
2021/01/07 11:57:02;;;;;;;27.77;18.93;;;2.50;80.10;;;;;;5021257;28;20459;-81
2021/01/07 11:59:31;;;;;;;23.00;17.10;;;2.50;80.80;;;;;;5043553;28;20471;-81
2021/01/07 12:01:59;;;;;;;26.63;19.20;;;2.50;80.30;;;;;;5040899;28;20466;-80
2021/01/07 12:04:31;;;;;;;25.90;19.27;;;2.50;80.30;;;;;;5038844;28;20504;-81
2021/01/07 12:07:04;;;;;;;28.10;19.27;;;2.40;80.20;;;;;;5046046;28;20531;-81
2021/01/07 12:09:37;;;;;;;26.80;19.37;;;2.40;80.40;;;;;;5042709;28;20466;-80
2021/01/07 12:12:09;;;;;;;25.80;17.97;;;2.40;80.50;;;;;;5041208;28;20476;-81
2021/01/07 12:14:44;;;;;;;28.80;19.00;;;2.40;81.00;;;;;;5044821;28;20461;-81
2021/01/07 12:17:13;;;;;;;25.07;18.17;;;2.40;81.80;;;;;;5040338;28;20477;-81
2021/01/07 12:19:42;;;;;;;25.03;18.50;;;2.40;81.20;;;;;;5047171;28;20465;-81
2021/01/07 12:22:14;;;;;;;25.07;18.17;;;2.40;81.50;;;;;;5037175;28;20461;-78
2021/01/07 12:24:43;;;;;;;24.17;17.50;;;2.50;80.80;;;;;;5034758;28;20510;-78
2021/01/07 12:27:11;;;;;;;25.87;18.37;;;2.60;79.60;;;;;;5033794;28;21013;-78
2021/01/07 12:29:40;;;;;;;23.40;17.87;;;2.70;79.90;;;;;;5036160;28;20978;-78
2021/01/07 12:32:32;;;;;;;25.37;18.77;;;2.70;79.70;;;;;;5053618;28;20450;-84
2021/01/07 12:35:09;;;;;;;23.00;16.97;;;2.70;79.20;;;;;;5041046;28;21556;-85
2021/01/07 12:37:49;;;;;;;28.50;18.63;;;2.80;79.10;;;;;;5050141;28;20455;-85
2021/01/07 12:40:22;;;;;;;25.83;17.53;;;2.70;79.00;;;;;;5047255;28;20486;-86
2021/01/07 12:42:55;;;;;;;24.60;17.30;;;2.70;79.00;;;;;;5040413;28;20462;-86
2021/01/07 12:45:23;;;;;;;23.23;17.73;;;2.70;78.50;;;;;;5021867;28;20849;-85
2021/01/07 12:47:51;;;;;;;24.87;17.17;;;2.80;78.50;;;;;;5039322;28;20556;-86
2021/01/07 12:50:19;;;;;;;22.00;16.73;;;2.70;78.10;;;;;;5039469;28;20835;-86
2021/01/07 12:52:48;;;;;;;22.70;16.93;;;2.70;78.20;;;;;;5022319;28;20523;-86
2021/01/07 12:55:14;;;;;;;26.73;17.07;;;2.70;78.30;;;;;;5051449;28;20464;-87
2021/01/07 12:57:53;;;;;;;21.67;16.47;;;2.80;78.20;;;;;;5052641;28;20448;-87